Hakuhomaru — JJ4011 — position and weather

sailwx.info

Track history (hours):
 
Tides and Currents Weather Stations Pressure Air Temp Water Temp Dewpoint Dewpoint Depression Visibility Wind Speed Wind Dir Waves Ship Positions

Hakuhomaru

Last reported at 2016-Dec-07 10:33 UTC. Time now 2016-Dec-07 10:40 UTC.
Position N 34°42' E 135°18'.

Length 38 m; draft 3.3 m.

Type: Tug. MMSI: 431401584.

Date/timePositionNaut miles runAvg speedWind from/ knotsBaromVisibWave heightAir tempDewpointWater temp
2016-Dec-07 10:33N 34°42' E 135°18'5 4.9
2016-Dec-07 09:33N 34°41' E 135°12'0 0.0
2016-Dec-07 08:33N 34°41' E 135°12'0 0.0
2016-Dec-07 07:32N 34°41' E 135°12'0 0.0
2016-Dec-07 06:33N 34°41' E 135°12'3 2.6
2016-Dec-07 05:33N 34°41' E 135°15'2 2.1
2016-Dec-07 04:32N 34°40' E 135°18'5 4.7
2016-Dec-07 03:33N 34°41' E 135°12'0 0.2
2016-Dec-07 02:33N 34°41' E 135°12'0 0.0
2016-Dec-07 01:33N 34°41' E 135°12'0 0.0
2016-Dec-07 00:33N 34°41' E 135°12'0 0.0
2016-Dec-06 23:33N 34°41' E 135°12'2 2.0
2016-Dec-06 22:33N 34°41' E 135°14'1 0.7
2016-Dec-06 21:33N 34°41' E 135°14'2 0.1
2016-Dec-06 06:33N 34°41' E 135°12'0 0.0
2016-Dec-06 05:33N 34°41' E 135°12'0 0.0
2016-Dec-06 04:34N 34°41' E 135°12'0 0.0
2016-Dec-06 03:32N 34°41' E 135°12'0 0.0
2016-Dec-06 02:33N 34°41' E 135°12'0 0.0
2016-Dec-06 01:34N 34°41' E 135°12'0 0.3
2016-Dec-06 00:33N 34°41' E 135°12'3 2.7
2016-Dec-05 23:34N 34°41' E 135°16'2 1.9
2016-Dec-05 22:34N 34°39' E 135°16'3 3.4
2016-Dec-05 21:33N 34°41' E 135°12'0 0.0
2016-Dec-05 11:33N 34°41' E 135°12'4 4.4
2016-Dec-05 10:33N 34°41' E 135°17'4 4.3
2016-Dec-05 09:33N 34°41' E 135°12'0 0.0
2016-Dec-05 08:33N 34°41' E 135°12'0 0.0
2016-Dec-05 07:33N 34°41' E 135°12'0 0.0
2016-Dec-05 06:33N 34°41' E 135°12'4 4.0
2016-Dec-05 05:33N 34°41' E 135°17'1 0.9
2016-Dec-05 04:33N 34°41' E 135°17'4 3.9
2016-Dec-05 03:33N 34°41' E 135°12'0 0.0
2016-Dec-05 02:33N 34°41' E 135°12'0 0.0
2016-Dec-05 01:32N 34°41' E 135°12'0 0.0
2016-Dec-05 00:33N 34°41' E 135°12'0 0.0
2016-Dec-04 23:33N 34°41' E 135°12'  
2016-Dec-02 06:33N 34°41' E 135°12'0 0.0
2016-Dec-02 05:33N 34°41' E 135°12'0 0.0
2016-Dec-02 04:33N 34°41' E 135°12'0 0.0
2016-Dec-02 03:33N 34°41' E 135°12'0 0.0
2016-Dec-02 02:33N 34°41' E 135°12'0 0.0
2016-Dec-02 01:33N 34°41' E 135°12'2 2.1
2016-Dec-02 00:33N 34°40' E 135°15'2 1.6
2016-Dec-01 23:33N 34°39' E 135°16'3 3.4
2016-Dec-01 22:33N 34°41' E 135°12'0 0.0
2016-Dec-01 12:33N 34°41' E 135°12'4 3.7
2016-Dec-01 11:33N 34°41' E 135°17'0 0.1
2016-Dec-01 10:32N 34°41' E 135°17'0 0.0
2016-Dec-01 09:33N 34°41' E 135°17'1 1.1
2016-Dec-01 08:33N 34°41' E 135°15'1 1.1
2016-Dec-01 07:34N 34°41' E 135°17'0 0.0
2016-Dec-01 06:34N 34°41' E 135°17'0 0.0
2016-Dec-01 05:33N 34°41' E 135°17'0 0.5
2016-Dec-01 04:34N 34°41' E 135°17'4 4.1
2016-Dec-01 03:34N 34°41' E 135°12'0 0.0
2016-Dec-01 02:31N 34°41' E 135°12'0 0.0
2016-Dec-01 01:34N 34°41' E 135°12'0 0.0
2016-Dec-01 00:33N 34°41' E 135°12'0 0.0
2016-Nov-30 23:34N 34°41' E 135°12'2 2.0
2016-Nov-30 22:34N 34°40' E 135°14'1 1.2
2016-Nov-30 21:33N 34°41' E 135°14'1 0.1
2016-Nov-29 22:33N 34°41' E 135°15'2 2.3
2016-Nov-29 21:34N 34°40' E 135°18'3 2.6
2016-Nov-29 20:33N 34°42' E 135°15'0 0.0
2016-Nov-29 19:33N 34°42' E 135°15'0 0.0
2016-Nov-29 18:33N 34°42' E 135°15'1 1.2
2016-Nov-29 17:34N 34°41' E 135°16'0 0.5
2016-Nov-29 16:34N 34°41' E 135°17'0 0.0
2016-Nov-29 15:34N 34°41' E 135°17'0 0.0
2016-Nov-29 14:33N 34°41' E 135°17'0 0.0
2016-Nov-29 13:34N 34°41' E 135°17'1 1.5
2016-Nov-29 12:33N 34°40' E 135°15'0 0.3
2016-Nov-29 11:33N 34°40' E 135°15'2 1.7
2016-Nov-29 10:33N 34°42' E 135°16'0 0.0
2016-Nov-29 09:33N 34°42' E 135°16'1 0.9
2016-Nov-29 08:34N 34°41' E 135°17'4 3.9
2016-Nov-29 07:33N 34°41' E 135°12'0 0.0
2016-Nov-29 06:33N 34°41' E 135°12'0 0.0
2016-Nov-29 05:33N 34°41' E 135°12'0 0.0
2016-Nov-29 04:33N 34°41' E 135°12'0 0.0
2016-Nov-29 03:33N 34°41' E 135°12'0 0.0
2016-Nov-29 02:33N 34°41' E 135°12'0 0.0
2016-Nov-29 01:33N 34°41' E 135°12'0 0.0
2016-Nov-29 00:34N 34°41' E 135°12'0 0.0
2016-Nov-28 23:33N 34°41' E 135°12'4 3.6
2016-Nov-28 22:33N 34°39' E 135°16'4 3.6
2016-Nov-28 21:33N 34°41' E 135°12'0 0.0
2016-Nov-28 12:24N 34°41' E 135°12'4 5.3
2016-Nov-28 11:34N 34°41' E 135°17'4 3.6
2016-Nov-28 10:34N 34°41' E 135°13'1 1.0
2016-Nov-28 09:34N 34°40' E 135°13'0 0.2
2016-Nov-28 08:34N 34°40' E 135°13'0 0.5
2016-Nov-28 07:33N 34°40' E 135°14'1 1.4
2016-Nov-28 06:34N 34°41' E 135°12'0 0.0
2016-Nov-28 05:33N 34°41' E 135°12'0 0.0
2016-Nov-28 04:34N 34°41' E 135°12'0 0.0
2016-Nov-28 03:33N 34°41' E 135°12'0 0.0
2016-Nov-28 02:34N 34°41' E 135°12'0 0.0
2016-Nov-28 01:33N 34°41' E 135°12'1 1.3
2016-Nov-28 00:34N 34°41' E 135°14'1 0.6
2016-Nov-27 23:34N 34°40' E 135°13'0 0.2
2016-Nov-27 22:34N 34°40' E 135°13'1 1.0
2016-Nov-27 21:33N 34°40' E 135°15'2 2.2
2016-Nov-27 20:33N 34°41' E 135°12'  
Track history (hours):
 
Tides and Currents Weather Stations Pressure Air Temp Water Temp Dewpoint Dewpoint Depression Visibility Wind Speed Wind Dir Waves Ship Positions

Hakuhomaru

Last reported at 2016-Dec-07 10:33 UTC. Time now 2016-Dec-07 10:40 UTC.
Position N 34°42' E 135°18'.

Length 38 m; draft 3.3 m.

Type: Tug. MMSI: 431401584.

Date/timePositionNaut miles runAvg speedWind from/ knotsBaromVisibWave heightAir tempDewpointWater temp
2016-Dec-07 10:33N 34°42' E 135°18'5 4.9
2016-Dec-07 09:33N 34°41' E 135°12'0 0.0
2016-Dec-07 08:33N 34°41' E 135°12'0 0.0
2016-Dec-07 07:32N 34°41' E 135°12'0 0.0
2016-Dec-07 06:33N 34°41' E 135°12'3 2.6
2016-Dec-07 05:33N 34°41' E 135°15'2 2.1
2016-Dec-07 04:32N 34°40' E 135°18'5 4.7
2016-Dec-07 03:33N 34°41' E 135°12'0 0.2
2016-Dec-07 02:33N 34°41' E 135°12'0 0.0
2016-Dec-07 01:33N 34°41' E 135°12'0 0.0
2016-Dec-07 00:33N 34°41' E 135°12'0 0.0
2016-Dec-06 23:33N 34°41' E 135°12'2 2.0
2016-Dec-06 22:33N 34°41' E 135°14'1 0.7
2016-Dec-06 21:33N 34°41' E 135°14'2 0.1
2016-Dec-06 06:33N 34°41' E 135°12'0 0.0
2016-Dec-06 05:33N 34°41' E 135°12'0 0.0
2016-Dec-06 04:34N 34°41' E 135°12'0 0.0
2016-Dec-06 03:32N 34°41' E 135°12'0 0.0
2016-Dec-06 02:33N 34°41' E 135°12'0 0.0
2016-Dec-06 01:34N 34°41' E 135°12'0 0.3
2016-Dec-06 00:33N 34°41' E 135°12'3 2.7
2016-Dec-05 23:34N 34°41' E 135°16'2 1.9
2016-Dec-05 22:34N 34°39' E 135°16'3 3.4
2016-Dec-05 21:33N 34°41' E 135°12'0 0.0
2016-Dec-05 11:33N 34°41' E 135°12'4 4.4
2016-Dec-05 10:33N 34°41' E 135°17'4 4.3
2016-Dec-05 09:33N 34°41' E 135°12'0 0.0
2016-Dec-05 08:33N 34°41' E 135°12'0 0.0
2016-Dec-05 07:33N 34°41' E 135°12'0 0.0
2016-Dec-05 06:33N 34°41' E 135°12'4 4.0
2016-Dec-05 05:33N 34°41' E 135°17'1 0.9
2016-Dec-05 04:33N 34°41' E 135°17'4 3.9
2016-Dec-05 03:33N 34°41' E 135°12'0 0.0
2016-Dec-05 02:33N 34°41' E 135°12'0 0.0
2016-Dec-05 01:32N 34°41' E 135°12'0 0.0
2016-Dec-05 00:33N 34°41' E 135°12'0 0.0
2016-Dec-04 23:33N 34°41' E 135°12'  
2016-Dec-02 06:33N 34°41' E 135°12'0 0.0
2016-Dec-02 05:33N 34°41' E 135°12'0 0.0
2016-Dec-02 04:33N 34°41' E 135°12'0 0.0
2016-Dec-02 03:33N 34°41' E 135°12'0 0.0
2016-Dec-02 02:33N 34°41' E 135°12'0 0.0
2016-Dec-02 01:33N 34°41' E 135°12'2 2.1
2016-Dec-02 00:33N 34°40' E 135°15'2 1.6
2016-Dec-01 23:33N 34°39' E 135°16'3 3.4
2016-Dec-01 22:33N 34°41' E 135°12'0 0.0
2016-Dec-01 12:33N 34°41' E 135°12'4 3.7
2016-Dec-01 11:33N 34°41' E 135°17'0 0.1
2016-Dec-01 10:32N 34°41' E 135°17'0 0.0
2016-Dec-01 09:33N 34°41' E 135°17'1 1.1
2016-Dec-01 08:33N 34°41' E 135°15'1 1.1
2016-Dec-01 07:34N 34°41' E 135°17'0 0.0
2016-Dec-01 06:34N 34°41' E 135°17'0 0.0
2016-Dec-01 05:33N 34°41' E 135°17'0 0.5
2016-Dec-01 04:34N 34°41' E 135°17'4 4.1
2016-Dec-01 03:34N 34°41' E 135°12'0 0.0
2016-Dec-01 02:31N 34°41' E 135°12'0 0.0
2016-Dec-01 01:34N 34°41' E 135°12'0 0.0
2016-Dec-01 00:33N 34°41' E 135°12'0 0.0
2016-Nov-30 23:34N 34°41' E 135°12'2 2.0
2016-Nov-30 22:34N 34°40' E 135°14'1 1.2
2016-Nov-30 21:33N 34°41' E 135°14'1 0.1
2016-Nov-29 22:33N 34°41' E 135°15'2 2.3
2016-Nov-29 21:34N 34°40' E 135°18'3 2.6
2016-Nov-29 20:33N 34°42' E 135°15'0 0.0
2016-Nov-29 19:33N 34°42' E 135°15'0 0.0
2016-Nov-29 18:33N 34°42' E 135°15'1 1.2
2016-Nov-29 17:34N 34°41' E 135°16'0 0.5
2016-Nov-29 16:34N 34°41' E 135°17'0 0.0
2016-Nov-29 15:34N 34°41' E 135°17'0 0.0
2016-Nov-29 14:33N 34°41' E 135°17'0 0.0
2016-Nov-29 13:34N 34°41' E 135°17'1 1.5
2016-Nov-29 12:33N 34°40' E 135°15'0 0.3
2016-Nov-29 11:33N 34°40' E 135°15'2 1.7
2016-Nov-29 10:33N 34°42' E 135°16'0 0.0
2016-Nov-29 09:33N 34°42' E 135°16'1 0.9
2016-Nov-29 08:34N 34°41' E 135°17'4 3.9
2016-Nov-29 07:33N 34°41' E 135°12'0 0.0
2016-Nov-29 06:33N 34°41' E 135°12'0 0.0
2016-Nov-29 05:33N 34°41' E 135°12'0 0.0
2016-Nov-29 04:33N 34°41' E 135°12'0 0.0
2016-Nov-29 03:33N 34°41' E 135°12'0 0.0
2016-Nov-29 02:33N 34°41' E 135°12'0 0.0
2016-Nov-29 01:33N 34°41' E 135°12'0 0.0
2016-Nov-29 00:34N 34°41' E 135°12'0 0.0
2016-Nov-28 23:33N 34°41' E 135°12'4 3.6
2016-Nov-28 22:33N 34°39' E 135°16'4 3.6
2016-Nov-28 21:33N 34°41' E 135°12'0 0.0
2016-Nov-28 12:24N 34°41' E 135°12'4 5.3
2016-Nov-28 11:34N 34°41' E 135°17'4 3.6
2016-Nov-28 10:34N 34°41' E 135°13'1 1.0
2016-Nov-28 09:34N 34°40' E 135°13'0 0.2
2016-Nov-28 08:34N 34°40' E 135°13'0 0.5
2016-Nov-28 07:33N 34°40' E 135°14'1 1.4
2016-Nov-28 06:34N 34°41' E 135°12'0 0.0
2016-Nov-28 05:33N 34°41' E 135°12'0 0.0
2016-Nov-28 04:34N 34°41' E 135°12'0 0.0
2016-Nov-28 03:33N 34°41' E 135°12'0 0.0
2016-Nov-28 02:34N 34°41' E 135°12'0 0.0
2016-Nov-28 01:33N 34°41' E 135°12'1 1.3
2016-Nov-28 00:34N 34°41' E 135°14'1 0.6
2016-Nov-27 23:34N 34°40' E 135°13'0 0.2
2016-Nov-27 22:34N 34°40' E 135°13'1 1.0
2016-Nov-27 21:33N 34°40' E 135°15'2 2.2
2016-Nov-27 20:33N 34°41' E 135°12'  

Dump ship's entire track history